CheckWX is a tool to help pilots better visualize weather data.  It is not intended as a substitute for an official pre-flight weather briefing.

21:14:56 UTC

SCCH METAR
Gral. Bernardo O´Higgins Airport
Chillan, Chile
Current

15 mins ago

SCCH 112100Z 03005KT 9999 BKN020 OVC080 10/06 Q1022
Observed
Jul-11 @ 21:00 UTC
Wind
  • 030° at 5 KTS
Visibility
10,000+ meters
Flight Rules
MVFR
Cloud Levels
  • Broken at 2,000' AGL
  • Overcast at 8,000' AGL
Temperature
10°C / 50°F
Dewpoint
C / 43°F
Humidity
76%
Altimeter
30.18" Hg
Pressure
1021.92 hPa
Previous

1 hour ago

SCCH 112000Z 04007KT 9999 SCT040 OVC100 10/05 Q1021
Observed
Jul-11 @ 20:00 UTC
Wind
  • 040° at 7 KTS
Visibility
10,000+ meters
Flight Rules
VFR
Cloud Levels
  • Scattered at 4,000' AGL
  • Overcast at 10,000' AGL
Temperature
10°C / 50°F
Dewpoint
C / 41°F
Humidity
71%
Altimeter
30.15" Hg
Pressure
1020.92 hPa
Previous

2 hours ago

SCCH 111900Z 04007KT 9999 SCT040 OVC100 10/05 Q1022
Observed
Jul-11 @ 19:00 UTC
Wind
  • 040° at 7 KTS
Visibility
10,000+ meters
Flight Rules
VFR
Cloud Levels
  • Scattered at 4,000' AGL
  • Overcast at 10,000' AGL
Temperature
10°C / 50°F
Dewpoint
C / 41°F
Humidity
71%
Altimeter
30.18" Hg
Pressure
1021.92 hPa